CheckWX is a tool to help pilots better visualize weather data.  It is not intended as a substitute for an official pre-flight weather briefing.

22:20:10 UTC

KOOA METAR
Oskaloosa Municipal Airport
Oskaloosa, Iowa, USA
Current

5 mins ago

KOOA 282215Z AUTO 36010KT 10SM OVC008 M05/M06 A3011 RMK AO2 T10521065
Observed
Jan-28 @ 22:15 UTC
Wind
  • 360° at 10 KTS
Visibility
10 SM
Flight Rules
IFR
Cloud Levels
  • Overcast at 800' AGL
Temperature
-5°C / 23°F
Dewpoint
-7°C / 19°F
Humidity
86%
Altimeter
30.11" Hg
Pressure
1019.62 hPa
Previous

25 mins ago

KOOA 282155Z AUTO 01008KT 10SM OVC008 M05/M06 A3012 RMK AO2 T10501064
Observed
Jan-28 @ 21:55 UTC
Wind
  • 010° at 8 KTS
Visibility
10 SM
Flight Rules
IFR
Cloud Levels
  • Overcast at 800' AGL
Temperature
-5°C / 23°F
Dewpoint
-6°C / 21°F
Humidity
93%
Altimeter
30.12" Hg
Pressure
1020.02 hPa
Previous

45 mins ago

KOOA 282135Z AUTO 01007KT 10SM OVC008 M05/M06 A3012 RMK AO2 T10471062
Observed
Jan-28 @ 21:35 UTC
Wind
  • 010° at 7 KTS
Visibility
10 SM
Flight Rules
IFR
Cloud Levels
  • Overcast at 800' AGL
Temperature
-5°C / 23°F
Dewpoint
-6°C / 21°F
Humidity
93%
Altimeter
30.12" Hg
Pressure
1020.02 hPa